Time;durP1;ratioP1;P1;durP2;ratioP2;P2;SDS_P1;SDS_P2;PMS_P1;PMS_P2;Temp;Humidity;BMP_temperature;BMP_pressure;BME280_temperature;BME280_humidity;BME280_pressure;Samples;Min_cycle;Max_cycle;Signal;HPM_P1;HPM_P2
2021/04/24 00:02:33;;;;;;;14.63;5.43;;;;;;;9.83;52.05;98054.06;4958048;28;20050;-87
2021/04/24 00:04:58;;;;;;;15.48;5.30;;;;;;;9.76;51.96;98066.88;4953702;28;20118;-87
2021/04/24 00:07:24;;;;;;;10.80;6.03;;;;;;;9.69;52.91;98068.09;4931883;29;20483;-86
2021/04/24 00:09:49;;;;;;;18.05;5.88;;;;;;;9.65;52.19;98065.69;4950112;29;20094;-87
2021/04/24 00:12:16;;;;;;;14.85;5.15;;;;;;;9.55;51.51;98054.59;4953764;29;20038;-87
2021/04/24 00:14:41;;;;;;;14.88;5.32;;;;;;;9.58;51.96;98059.78;4937972;29;20035;-87
2021/04/24 00:17:07;;;;;;;13.32;5.53;;;;;;;9.53;53.02;98060.94;4921931;29;20090;-86
2021/04/24 00:19:32;;;;;;;12.60;5.25;;;;;;;9.47;53.50;98058.59;4954012;29;20054;-87
2021/04/24 00:21:58;;;;;;;15.20;5.70;;;;;;;9.44;52.93;98062.28;4921772;28;20038;-87
2021/04/24 00:24:24;;;;;;;11.27;5.43;;;;;;;9.30;55.32;98056.72;4959670;28;20046;-86
2021/04/24 00:26:50;;;;;;;16.33;5.88;;;;;;;9.32;55.91;98072.69;4950570;29;20042;-87
2021/04/24 00:29:15;;;;;;;10.95;5.32;;;;;;;9.19;56.95;98057.25;4937487;29;20031;-85
2021/04/24 00:31:41;;;;;;;18.27;5.93;;;;;;;9.23;58.12;98066.84;4925857;29;20550;-85
2021/04/24 00:34:06;;;;;;;12.75;5.72;;;;;;;9.09;57.04;98063.09;4944136;29;20039;-86
2021/04/24 00:36:32;;;;;;;14.15;6.47;;;;;;;9.01;59.63;98071.44;4937273;29;20122;-86
2021/04/24 00:38:58;;;;;;;13.00;5.90;;;;;;;8.88;59.79;98065.00;4936133;29;20027;-86
2021/04/24 00:41:24;;;;;;;18.02;7.82;;;;;;;8.79;60.73;98062.75;4946563;28;20038;-86
2021/04/24 00:43:49;;;;;;;14.20;7.10;;;;;;;8.67;59.57;98058.00;4921379;29;20102;-86
2021/04/24 00:46:17;;;;;;;16.55;5.97;;;;;;;8.68;58.57;98065.03;4926155;29;20032;-86
2021/04/24 00:48:42;;;;;;;10.98;5.00;;;;;;;8.64;58.38;98068.78;4952008;28;20090;-86
2021/04/24 00:51:08;;;;;;;11.15;5.53;;;;;;;8.57;59.84;98068.22;4949592;28;20106;-86
2021/04/24 00:53:35;;;;;;;16.50;5.85;;;;;;;8.57;59.46;98075.34;4953827;28;20026;-86
2021/04/24 00:56:01;;;;;;;12.45;6.38;;;;;;;8.49;60.60;98075.66;4948107;28;20035;-86
2021/04/24 00:58:27;;;;;;;14.63;6.60;;;;;;;8.48;60.08;98067.75;4953075;28;20042;-86
2021/04/24 01:00:53;;;;;;;10.07;5.45;;;;;;;8.36;61.59;98065.66;4951535;28;20503;-85
2021/04/24 01:03:19;;;;;;;12.88;6.13;;;;;;;8.18;64.23;98075.28;4951683;28;20034;-86
2021/04/24 01:05:45;;;;;;;14.90;6.28;;;;;;;8.09;64.80;98075.69;4959866;28;20453;-86
2021/04/24 01:08:11;;;;;;;14.13;6.57;;;;;;;7.99;66.45;98075.22;4989139;28;20026;-86
2021/04/24 01:14:01;;;;;;;31.20;8.48;;;;;;;7.44;68.83;98035.91;4931783;28;20041;-85
2021/04/24 01:16:27;;;;;;;18.00;7.82;;;;;;;7.39;71.46;98059.16;4899921;29;20036;-85
2021/04/24 01:18:52;;;;;;;16.08;8.38;;;;;;;7.29;73.47;98063.97;4916903;29;20417;-85
2021/04/24 01:21:22;;;;;;;22.25;9.70;;;;;;;7.18;74.37;98078.66;4909105;29;20639;-85
2021/04/24 01:23:47;;;;;;;25.25;10.65;;;;;;;6.97;76.72;98064.41;4901906;29;20079;-85
2021/04/24 01:26:13;;;;;;;23.33;10.30;;;;;;;7.04;77.63;98069.41;4882335;29;20552;-85
2021/04/24 01:28:39;;;;;;;28.10;10.57;;;;;;;6.89;77.41;98078.00;4903359;29;20575;-85
2021/04/24 01:31:05;;;;;;;25.08;11.75;;;;;;;6.78;78.43;98074.03;4892792;29;20542;-85
2021/04/24 01:33:30;;;;;;;24.88;9.80;;;;;;;6.69;78.44;98064.63;4928085;29;20412;-86
2021/04/24 01:35:56;;;;;;;22.13;9.10;;;;;;;6.56;79.86;98071.31;4897289;29;20043;-85
2021/04/24 01:38:21;;;;;;;15.07;8.48;;;;;;;6.52;79.89;98072.38;4905156;29;20137;-85
2021/04/24 01:40:47;;;;;;;14.90;7.63;;;;;;;6.52;79.36;98077.69;4959363;28;20089;-86
2021/04/24 01:43:13;;;;;;;16.25;8.38;;;;;;;6.53;80.72;98082.06;4958688;28;20045;-85
2021/04/24 01:45:38;;;;;;;20.92;9.63;;;;;;;6.39;81.33;98064.00;4958886;28;20022;-85
2021/04/24 01:48:08;;;;;;;19.60;8.30;;;;;;;6.39;82.40;98073.75;4950113;28;20549;-84
2021/04/24 01:50:42;;;;;;;22.88;8.40;;;;;;;6.31;81.95;98078.44;4936282;29;20047;-86
2021/04/24 01:53:09;;;;;;;21.83;9.05;;;;;;;6.28;84.25;98089.19;4922785;28;20466;-85
2021/04/24 01:55:36;;;;;;;22.92;8.80;;;;;;;6.24;82.78;98076.97;4939777;28;20031;-85
2021/04/24 01:58:06;;;;;;;18.88;8.60;;;;;;;6.17;81.69;98076.31;4936567;28;20502;-85
2021/04/24 02:00:34;;;;;;;14.13;8.25;;;;;;;6.09;80.57;98075.69;4927639;29;20027;-86
2021/04/24 02:03:01;;;;;;;16.30;7.35;;;;;;;6.16;79.16;98079.00;4935820;28;20089;-85
2021/04/24 02:05:27;;;;;;;20.10;7.60;;;;;;;6.08;79.77;98071.34;4931935;28;20026;-85
2021/04/24 02:07:58;;;;;;;20.90;8.27;;;;;;;6.08;83.00;98081.09;4939691;28;20035;-85
2021/04/24 02:10:25;;;;;;;23.10;8.23;;;;;;;5.92;83.82;98078.97;4931459;28;20078;-85
2021/04/24 02:12:51;;;;;;;16.83;8.20;;;;;;;5.88;85.74;98080.00;4939445;28;20035;-85
2021/04/24 02:15:16;;;;;;;20.60;8.77;;;;;;;5.80;84.59;98082.03;4939125;28;20394;-86
2021/04/24 02:17:42;;;;;;;25.50;8.63;;;;;;;5.65;85.89;98082.56;4939903;28;20417;-85
2021/04/24 02:20:08;;;;;;;19.17;7.53;;;;;;;5.68;84.34;98082.44;4938988;28;20512;-85
2021/04/24 02:22:34;;;;;;;16.15;7.15;;;;;;;5.64;82.76;98087.88;4955369;28;20034;-86
2021/04/24 02:25:01;;;;;;;15.52;7.50;;;;;;;5.58;83.47;98085.44;4939641;28;20166;-84
2021/04/24 02:27:28;;;;;;;14.82;8.02;;;;;;;5.55;84.14;98089.06;4955251;28;20560;-86
2021/04/24 02:29:55;;;;;;;17.33;7.88;;;;;;;5.46;84.26;98081.41;4939423;28;20027;-86
2021/04/24 02:32:26;;;;;;;15.50;8.10;;;;;;;5.39;82.45;98074.56;4939221;28;20046;-85
2021/04/24 02:34:52;;;;;;;17.77;8.60;;;;;;;5.32;83.51;98070.41;4939464;28;20487;-86
2021/04/24 02:37:18;;;;;;;27.92;8.30;;;;;;;5.34;85.71;98076.53;4938971;28;20045;-86
2021/04/24 02:39:46;;;;;;;18.20;8.48;;;;;;;5.27;85.43;98081.16;4955328;28;20027;-86
2021/04/24 02:42:16;;;;;;;17.55;7.82;;;;;;;5.23;84.74;98083.97;4939495;28;20034;-87
2021/04/24 02:44:42;;;;;;;19.65;8.07;;;;;;;5.22;84.47;98092.84;4934912;29;20494;-87
2021/04/24 02:47:08;;;;;;;13.50;7.50;;;;;;;5.12;84.66;98080.78;4928021;28;20026;-86
2021/04/24 02:49:34;;;;;;;24.98;9.57;;;;;;;5.10;85.15;98095.88;4941473;28;20137;-86
2021/04/24 02:52:02;;;;;;;21.02;9.18;;;;;;;5.10;86.25;98091.44;4952451;29;20027;-86
2021/04/24 02:54:27;;;;;;;17.55;7.68;;;;;;;4.97;86.34;98081.25;4940958;29;20023;-86
2021/04/24 02:56:53;;;;;;;26.42;7.80;;;;;;;4.85;87.34;98072.78;4931084;28;20031;-86
2021/04/24 02:59:21;;;;;;;18.67;8.65;;;;;;;4.96;88.23;98096.28;4934563;28;20034;-85
2021/04/24 03:01:47;;;;;;;20.00;7.90;;;;;;;4.85;88.86;98087.81;4942210;28;20038;-84
2021/04/24 03:04:13;;;;;;;21.98;7.95;;;;;;;4.92;89.26;98087.56;4941989;28;20050;-87
2021/04/24 03:06:39;;;;;;;17.08;8.30;;;;;;;4.77;90.50;98082.72;4942133;28;20027;-87
2021/04/24 03:09:05;;;;;;;20.63;9.55;;;;;;;4.78;91.86;98094.19;4942195;28;20046;-87
2021/04/24 03:11:31;;;;;;;18.15;9.48;;;;;;;4.70;91.61;98097.09;4942096;28;20026;-86
2021/04/24 03:13:58;;;;;;;46.47;16.23;;;;;;;4.65;92.35;98101.66;4942824;28;20054;-86
2021/04/24 03:16:24;;;;;;;27.08;12.32;;;;;;;4.66;93.52;98092.78;4958604;28;20527;-86
2021/04/24 03:18:53;;;;;;;18.85;8.50;;;;;;;4.54;92.92;98087.88;4942591;28;20471;-87
2021/04/24 03:21:19;;;;;;;19.48;8.80;;;;;;;4.40;93.72;98074.13;4942363;28;20100;-85
2021/04/24 03:23:45;;;;;;;22.65;8.45;;;;;;;4.36;94.04;98089.28;4938004;29;20058;-86
2021/04/24 03:26:12;;;;;;;13.43;7.68;;;;;;;4.44;93.42;98098.75;4915370;29;20074;-87
2021/04/24 03:28:41;;;;;;;16.58;7.95;;;;;;;4.43;92.64;98105.81;4942282;28;20130;-86
2021/04/24 03:31:06;;;;;;;20.02;8.50;;;;;;;4.34;92.38;98091.09;4934921;28;20026;-86
2021/04/24 03:33:32;;;;;;;25.10;10.10;;;;;;;4.40;92.86;98105.91;4942445;28;20061;-86
2021/04/24 03:35:58;;;;;;;23.38;10.25;;;;;;;4.34;93.77;98096.38;4936209;29;20097;-86
2021/04/24 03:38:23;;;;;;;19.65;8.13;;;;;;;4.04;93.25;98048.72;4932573;28;20133;-86
2021/04/24 03:40:49;;;;;;;18.00;9.07;;;;;;;4.34;93.67;98087.56;4942014;28;20027;-87
2021/04/24 03:43:14;;;;;;;19.42;9.10;;;;;;;4.38;94.27;98099.81;4943088;28;20042;-86
2021/04/24 03:45:41;;;;;;;34.95;18.60;;;;;;;4.54;92.95;98102.88;4958137;28;20034;-87
2021/04/24 03:48:07;;;;;;;19.83;10.50;;;;;;;4.63;92.20;98103.50;4943069;28;20030;-86
2021/04/24 03:50:33;;;;;;;34.15;15.98;;;;;;;4.70;92.04;98110.34;4957480;28;20050;-86
2021/04/24 03:52:58;;;;;;;31.48;17.55;;;;;;;4.72;91.38;98097.03;4942468;28;20122;-87
2021/04/24 03:55:24;;;;;;;31.08;16.77;;;;;;;4.82;91.66;98086.13;4933576;28;20182;-76
2021/04/24 03:57:51;;;;;;;23.40;11.20;;;;;;;4.93;90.52;98102.56;4953654;29;20407;-84
2021/04/24 04:00:18;;;;;;;22.00;9.98;;;;;;;5.02;90.44;98105.84;4953537;28;20030;-85
2021/04/24 04:02:57;;;;;;;19.70;9.85;;;;;;;5.16;89.93;98108.94;4941184;28;20109;-84
2021/04/24 04:05:26;;;;;;;18.98;10.80;;;;;;;5.22;89.35;98106.97;4960424;28;20031;-85
2021/04/24 04:07:52;;;;;;;21.10;11.27;;;;;;;5.33;89.36;98114.56;4933909;29;20023;-84
2021/04/24 04:10:18;;;;;;;24.80;11.40;;;;;;;5.34;88.74;98109.22;4948350;28;20037;-84
2021/04/24 04:12:45;;;;;;;32.20;11.23;;;;;;;5.29;88.32;98094.38;4934955;29;20399;-86
2021/04/24 04:15:13;;;;;;;27.20;11.75;;;;;;;5.47;88.74;98115.00;4929513;29;20051;-85
2021/04/24 04:17:38;;;;;;;23.63;11.00;;;;;;;5.68;88.54;98119.59;4955246;28;20023;-84
2021/04/24 04:20:06;;;;;;;21.27;10.20;;;;;;;5.67;88.17;98123.16;4935130;29;20027;-85
2021/04/24 04:22:32;;;;;;;26.67;13.60;;;;;;;5.44;86.63;98080.63;4944225;28;20512;-86
2021/04/24 04:24:58;;;;;;;39.67;16.52;;;;;;;5.74;85.90;98119.38;4928840;28;20023;-86
2021/04/24 04:27:23;;;;;;;41.75;18.10;;;;;;;5.78;84.99;98122.81;4937858;29;20411;-85
2021/04/24 04:29:49;;;;;;;45.72;19.27;;;;;;;5.69;85.56;98116.00;4926355;29;20032;-85
2021/04/24 04:32:15;;;;;;;33.03;16.42;;;;;;;5.95;84.51;98129.31;4929012;28;20035;-85
2021/04/24 04:34:41;;;;;;;33.92;14.43;;;;;;;6.11;83.58;98127.00;4940841;28;20043;-85
2021/04/24 04:37:06;;;;;;;38.92;17.90;;;;;;;6.26;82.41;98126.44;4956983;28;20132;-87
2021/04/24 04:39:32;;;;;;;24.45;11.82;;;;;;;6.33;81.69;98129.75;4924661;28;20494;-88
2021/04/24 04:41:58;;;;;;;25.17;10.70;;;;;;;6.52;81.99;98141.47;4957977;28;20026;-84
2021/04/24 04:44:23;;;;;;;21.67;11.43;;;;;;;6.47;81.70;98112.38;4959465;28;20516;-85
2021/04/24 04:46:49;;;;;;;26.45;11.02;;;;;;;6.68;80.94;98134.66;4937873;28;20042;-84
2021/04/24 04:49:14;;;;;;;33.22;15.55;;;;;;;6.71;79.57;98126.56;4960373;28;20051;-84
2021/04/24 04:51:40;;;;;;;17.42;10.40;;;;;;;6.81;80.79;98137.72;4939874;28;20046;-84
2021/04/24 04:54:05;;;;;;;22.88;10.00;;;;;;;6.92;79.35;98122.25;4939759;28;20062;-85
2021/04/24 04:56:31;;;;;;;26.77;10.45;;;;;;;7.16;78.31;98137.25;4944487;28;20034;-84
2021/04/24 04:58:56;;;;;;;25.10;11.40;;;;;;;7.09;77.10;98119.78;4926112;28;20053;-85
2021/04/24 05:01:22;;;;;;;25.30;9.70;;;;;;;7.26;77.70;98119.13;4948469;29;20133;-84
2021/04/24 05:03:48;;;;;;;24.05;10.40;;;;;;;7.29;77.07;98127.84;4954955;28;20073;-86
2021/04/24 05:06:13;;;;;;;20.20;9.73;;;;;;;7.45;76.33;98141.41;4947561;28;20121;-85
2021/04/24 05:08:39;;;;;;;22.58;9.35;;;;;;;7.45;76.25;98144.06;4957425;28;20034;-86
2021/04/24 05:11:05;;;;;;;18.52;8.23;;;;;;;7.69;74.80;98128.91;4937471;28;20109;-85
2021/04/24 05:13:31;;;;;;;24.80;9.45;;;;;;;7.76;75.09;98122.38;4923635;28;20037;-85
2021/04/24 05:15:57;;;;;;;29.55;13.45;;;;;;;7.95;73.56;98126.88;4933004;28;20026;-85
2021/04/24 05:18:22;;;;;;;19.75;8.73;;;;;;;7.95;73.05;98110.03;4957050;28;20042;-82
2021/04/24 05:20:48;;;;;;;32.15;8.95;;;;;;;8.26;72.15;98136.22;4946858;28;20034;-77
2021/04/24 05:23:13;;;;;;;16.95;8.10;;;;;;;8.30;72.17;98128.09;4975222;28;20030;-75
2021/04/24 05:25:39;;;;;;;15.60;8.50;;;;;;;8.43;70.97;98136.41;4954610;28;20495;-78
2021/04/24 05:28:05;;;;;;;15.60;7.90;;;;;;;8.59;69.90;98134.78;4938237;28;20094;-77
2021/04/24 05:30:31;;;;;;;14.80;7.18;;;;;;;8.66;70.61;98141.59;4955602;28;20026;-77
2021/04/24 05:32:58;;;;;;;21.02;7.55;;;;;;;8.65;71.09;98124.72;4955628;28;20050;-76
2021/04/24 05:35:24;;;;;;;22.92;7.97;;;;;;;8.71;70.07;98119.09;4943270;28;20038;-77
2021/04/24 05:37:50;;;;;;;18.77;8.30;;;;;;;8.83;69.84;98128.34;4967714;28;20086;-77
2021/04/24 05:40:16;;;;;;;15.82;7.10;;;;;;;9.00;68.17;98123.09;4958244;28;20037;-77
2021/04/24 05:42:41;;;;;;;13.13;7.25;;;;;;;9.17;68.04;98123.16;4971701;28;20138;-77
2021/04/24 05:45:11;;;;;;;16.80;7.70;;;;;;;9.14;67.28;98127.78;4973584;28;20030;-76
2021/04/24 05:47:41;;;;;;;21.52;7.68;;;;;;;9.43;68.03;98126.41;4950285;28;20028;-78
2021/04/24 05:50:12;;;;;;;16.30;8.02;;;;;;;9.44;65.59;98115.69;4946133;28;20072;-76
2021/04/24 05:52:46;;;;;;;18.58;7.45;;;;;;;9.84;64.14;98129.75;4924644;28;20133;-78
2021/04/24 05:55:13;;;;;;;20.63;7.07;;;;;;;9.94;61.13;98126.50;4946723;28;20058;-76
2021/04/24 05:57:39;;;;;;;16.48;7.07;;;;;;;10.09;61.78;98115.03;4941084;29;20031;-78
2021/04/24 06:00:26;;;;;;;;;;;;;;;;;;;;;
2021/04/24 06:02:53;;;;;;;16.42;8.70;;;;;;;10.39;59.90;98123.34;4947066;28;20039;-85
2021/04/24 06:05:19;;;;;;;55.22;26.02;;;;;;;10.88;58.38;98138.56;4931629;29;20122;-84
2021/04/24 06:07:45;;;;;;;29.83;11.60;;;;;;;11.28;57.43;98137.25;4924110;28;20487;-86
2021/04/24 06:10:13;;;;;;;23.55;11.07;;;;;;;11.71;56.30;98140.22;4927975;28;20034;-86
2021/04/24 06:12:40;;;;;;;26.58;11.15;;;;;;;11.89;54.14;98147.19;4934897;28;20039;-86
2021/04/24 06:15:08;;;;;;;19.50;10.88;;;;;;;12.07;53.67;98143.44;4922074;29;20034;-85
2021/04/24 06:17:34;;;;;;;27.80;14.38;;;;;;;12.85;52.10;98131.59;4946192;28;20031;-77
2021/04/24 06:19:59;;;;;;;27.65;13.82;;;;;;;13.72;47.27;98129.63;4950489;28;20442;-78
2021/04/24 06:22:25;;;;;;;25.85;11.85;;;;;;;14.20;46.41;98126.38;4927651;28;20035;-84
2021/04/24 06:24:50;;;;;;;21.48;10.05;;;;;;;15.01;44.94;98127.91;4927682;28;20050;-84
2021/04/24 06:27:16;;;;;;;16.88;9.25;;;;;;;15.57;42.79;98140.06;4935564;29;20066;-85
2021/04/24 06:29:42;;;;;;;27.40;11.85;;;;;;;15.97;41.52;98151.50;4939900;28;20057;-76
2021/04/24 06:32:08;;;;;;;20.27;8.88;;;;;;;15.94;41.45;98145.44;4925567;28;20573;-77
2021/04/24 06:34:34;;;;;;;15.75;9.35;;;;;;;16.76;40.09;98127.44;4928290;28;20028;-75
2021/04/24 06:36:59;;;;;;;24.00;12.27;;;;;;;16.85;38.84;98122.31;4945557;28;20019;-85
2021/04/24 06:39:25;;;;;;;19.38;8.70;;;;;;;17.57;38.04;98127.31;4930104;29;20042;-76
2021/04/24 06:41:50;;;;;;;22.05;8.07;;;;;;;18.01;38.63;98133.63;4947532;29;20546;-75
2021/04/24 06:44:16;;;;;;;12.75;5.97;;;;;;;18.48;36.87;98133.25;4930994;28;20027;-75
2021/04/24 06:46:43;;;;;;;20.83;7.40;;;;;;;18.41;35.81;98134.75;4946203;28;20416;-75
2021/04/24 06:49:09;;;;;;;17.92;8.02;;;;;;;17.84;37.30;98137.75;4937525;28;20120;-77
2021/04/24 06:51:35;;;;;;;20.42;10.13;;;;;;;18.26;35.42;98130.63;4955619;28;20078;-76
2021/04/24 06:54:00;;;;;;;30.25;8.95;;;;;;;19.84;33.05;98129.38;4955824;28;20035;-78
2021/04/24 06:56:26;;;;;;;33.08;19.67;;;;;;;20.84;30.94;98121.94;4942853;29;20077;-80
2021/04/24 06:58:51;;;;;;;24.33;15.43;;;;;;;21.12;30.44;98122.94;4957970;28;20122;-77
2021/04/24 07:01:17;;;;;;;27.40;9.73;;;;;;;21.05;30.42;98109.03;4937250;28;20038;-88
2021/04/24 07:03:42;;;;;;;20.33;9.32;;;;;;;20.78;30.59;98106.19;4952808;28;20121;-88
2021/04/24 07:06:08;;;;;;;15.15;7.82;;;;;;;20.39;31.48;98113.53;4960134;28;20035;-87
2021/04/24 07:08:34;;;;;;;73.22;27.75;;;;;;;21.21;30.48;98114.75;4945023;28;20046;-87
2021/04/24 07:11:00;;;;;;;16.58;8.85;;;;;;;22.56;28.29;98120.38;4946060;28;20035;-84
2021/04/24 07:13:26;;;;;;;25.38;10.68;;;;;;;22.71;27.41;98113.38;4944776;28;20039;-83
2021/04/24 07:15:52;;;;;;;17.75;9.82;;;;;;;21.93;28.05;98119.53;4946959;28;20475;-76
2021/04/24 07:18:18;;;;;;;37.05;10.23;;;;;;;21.63;28.54;98126.91;4952327;28;20034;-76
2021/04/24 07:20:43;;;;;;;21.90;9.35;;;;;;;21.67;29.11;98124.75;4957875;28;20023;-76
2021/04/24 07:23:09;;;;;;;18.20;9.15;;;;;;;21.40;28.62;98119.28;4954179;28;20391;-77
2021/04/24 07:25:35;;;;;;;41.90;25.33;;;;;;;21.14;29.04;98134.50;4949655;28;20031;-78
2021/04/24 07:28:00;;;;;;;17.33;8.70;;;;;;;21.43;28.18;98119.84;4947978;28;20451;-77
2021/04/24 07:30:26;;;;;;;16.95;8.68;;;;;;;21.17;28.28;98117.91;4957297;28;20092;-77
2021/04/24 07:32:52;;;;;;;23.10;8.68;;;;;;;21.73;27.59;98120.56;4944036;28;20145;-79
2021/04/24 07:35:18;;;;;;;18.90;7.05;;;;;;;22.83;25.30;98090.28;4940980;28;20534;-76
2021/04/24 07:37:43;;;;;;;22.98;7.60;;;;;;;23.07;23.14;98081.47;4939297;28;20033;-76
2021/04/24 07:40:10;;;;;;;18.77;8.18;;;;;;;23.50;24.83;98094.22;4953818;28;20475;-77
2021/04/24 07:42:36;;;;;;;14.18;7.20;;;;;;;24.30;22.75;98079.19;4963432;28;20097;-76
2021/04/24 07:45:02;;;;;;;13.77;6.68;;;;;;;23.53;25.09;98072.03;4950747;28;20573;-77
2021/04/24 07:47:27;;;;;;;16.67;6.72;;;;;;;24.12;22.65;98076.56;4961127;28;20026;-77
2021/04/24 07:49:53;;;;;;;12.23;6.68;;;;;;;23.93;23.24;98083.16;4931855;29;20062;-86
2021/04/24 07:52:20;;;;;;;15.40;6.72;;;;;;;24.57;22.35;98074.25;4937311;29;20392;-77
2021/04/24 07:54:46;;;;;;;20.05;6.47;;;;;;;25.88;21.16;98071.16;4921191;29;20127;-77
2021/04/24 07:57:13;;;;;;;12.45;6.15;;;;;;;26.57;20.54;98072.19;4935823;29;20111;-76
2021/04/24 07:59:38;;;;;;;16.08;6.03;;;;;;;26.75;19.65;98068.09;4920634;29;20122;-76
2021/04/24 08:02:04;;;;;;;13.30;5.15;;;;;;;27.51;18.25;98056.09;4935152;29;20489;-75
2021/04/24 08:04:29;;;;;;;14.02;5.95;;;;;;;26.02;20.77;98051.25;4934665;29;20495;-76
2021/04/24 08:06:55;;;;;;;10.07;6.03;;;;;;;26.22;20.71;98066.22;4936281;29;20019;-76
2021/04/24 08:09:42;;;;;;;11.45;5.82;;;;;;;25.13;20.31;98048.75;4927753;29;20028;-94
2021/04/24 08:12:58;;;;;;;32.00;21.05;;;;;;;24.32;20.68;98050.63;4928302;29;20032;-93
2021/04/24 08:15:26;;;;;;;13.43;5.93;;;;;;;24.32;22.25;98057.97;4948179;28;20027;-91
2021/04/24 08:17:52;;;;;;;11.60;6.18;;;;;;;24.66;20.57;98047.75;4937356;29;20031;-89
2021/04/24 08:20:18;;;;;;;13.93;7.45;;;;;;;23.49;21.81;98038.72;4939338;29;20392;-89
2021/04/24 08:22:43;;;;;;;31.02;12.73;;;;;;;21.89;23.53;98042.69;4941473;29;20034;-88
2021/04/24 08:25:09;;;;;;;29.73;16.40;;;;;;;22.45;23.53;98041.53;4950012;29;20038;-88
2021/04/24 08:27:35;;;;;;;19.13;9.48;;;;;;;21.98;23.66;98044.47;4946897;29;20442;-89
2021/04/24 08:30:01;;;;;;;12.57;6.00;;;;;;;22.85;22.35;98051.94;4937391;29;20034;-89
2021/04/24 08:32:27;;;;;;;13.68;6.57;;;;;;;24.88;20.91;98046.25;4935481;29;20042;-88
2021/04/24 08:34:55;;;;;;;16.30;5.88;;;;;;;25.26;21.04;98049.06;4935406;29;20058;-88
2021/04/24 08:37:21;;;;;;;13.27;7.30;;;;;;;26.49;19.83;98042.06;4933630;29;20495;-88
2021/04/24 08:39:48;;;;;;;14.13;5.93;;;;;;;27.28;19.32;98038.81;4932681;29;20047;-89
2021/04/24 08:42:15;;;;;;;14.77;8.55;;;;;;;28.47;17.34;98031.09;4935271;29;20078;-87
2021/04/24 08:44:44;;;;;;;13.98;6.30;;;;;;;28.69;17.42;98012.72;4952020;28;20392;-88
2021/04/24 08:47:10;;;;;;;24.00;11.48;;;;;;;28.11;16.96;98008.25;4950948;28;20122;-88
2021/04/24 08:49:36;;;;;;;12.10;6.03;;;;;;;26.34;18.81;98004.41;4935175;29;20186;-89
2021/04/24 08:52:04;;;;;;;16.98;6.28;;;;;;;25.21;20.26;98015.91;4935131;29;20031;-88
2021/04/24 08:54:30;;;;;;;12.52;5.68;;;;;;;25.35;20.26;98004.19;4919217;29;20570;-86
2021/04/24 08:56:56;;;;;;;14.90;5.90;;;;;;;26.05;20.56;98004.25;4910735;29;20039;-85
2021/04/24 08:59:22;;;;;;;14.98;5.93;;;;;;;27.08;19.71;98005.50;4933894;29;20120;-83
2021/04/24 09:01:48;;;;;;;39.08;26.25;;;;;;;26.88;19.02;98005.22;4933842;29;20558;-84
2021/04/24 09:04:13;;;;;;;28.38;8.27;;;;;;;25.62;20.08;97983.75;4934373;29;20042;-87
2021/04/24 09:06:39;;;;;;;16.10;9.10;;;;;;;24.09;20.86;97987.50;4915522;29;20194;-88
2021/04/24 09:09:07;;;;;;;21.52;7.05;;;;;;;24.28;22.76;97995.41;4930220;29;20125;-88
2021/04/24 09:12:01;;;;;;;24.38;6.55;;;;;;;24.42;22.78;97987.56;4950681;28;20466;-87
2021/04/24 09:14:29;;;;;;;13.18;6.05;;;;;;;24.82;20.89;97979.38;4931655;29;20503;-89
2021/04/24 09:16:55;;;;;;;12.93;5.75;;;;;;;24.34;23.08;97982.94;4934015;29;20102;-89
2021/04/24 09:19:31;;;;;;;10.13;5.38;;;;;;;24.46;23.11;97972.50;4934201;29;20039;-88
2021/04/24 09:22:19;;;;;;;19.63;11.70;;;;;;;23.34;22.74;97979.41;4946930;28;20065;-87
2021/04/24 09:24:52;;;;;;;18.27;6.30;;;;;;;23.79;22.18;97969.00;4917173;29;20487;-86
2021/04/24 09:27:18;;;;;;;19.35;10.80;;;;;;;23.11;23.20;97957.25;4925155;29;20040;-87
2021/04/24 09:29:44;;;;;;;10.90;5.45;;;;;;;23.27;23.33;97959.22;4947397;28;20112;-89
2021/04/24 09:32:21;;;;;;;17.40;6.57;;;;;;;23.48;24.20;97959.66;4919207;29;20066;-90
2021/04/24 09:34:49;;;;;;;13.15;5.95;;;;;;;22.99;23.92;97959.44;4943493;29;20029;-90
2021/04/24 09:37:16;;;;;;;14.15;4.82;;;;;;;23.31;22.41;97956.00;4949534;28;20027;-89
2021/04/24 09:39:50;;;;;;;23.13;5.70;;;;;;;23.88;22.50;97957.06;4941307;29;20039;-90
2021/04/24 09:42:48;;;;;;;13.98;5.20;;;;;;;24.36;22.22;97949.97;4951193;29;20488;-89
2021/04/24 09:45:38;;;;;;;12.05;5.50;;;;;;;24.52;21.10;97938.97;4916301;28;20046;-89
2021/04/24 09:48:04;;;;;;;14.38;5.88;;;;;;;24.92;22.34;97947.16;4942179;29;20399;-90
2021/04/24 09:50:33;;;;;;;11.20;5.82;;;;;;;25.00;21.08;97949.03;4955934;28;20145;-90
2021/04/24 09:53:21;;;;;;;13.40;5.60;;;;;;;24.58;22.38;97932.84;4939963;28;20113;-87
2021/04/24 09:55:50;;;;;;;15.15;6.95;;;;;;;23.39;22.53;97922.41;4939677;28;20034;-88
2021/04/24 09:58:29;;;;;;;8.98;5.13;;;;;;;23.10;23.07;97934.56;4954062;28;20070;-86
2021/04/24 10:01:26;;;;;;;17.65;11.20;;;;;;;23.27;22.55;97934.66;4945472;28;20051;-90
2021/04/24 10:03:54;;;;;;;16.25;8.38;;;;;;;24.04;22.38;97923.41;4945361;28;20520;-90
2021/04/24 10:06:34;;;;;;;15.50;6.32;;;;;;;24.03;22.17;97927.16;4945191;28;20027;-89
2021/04/24 10:09:35;;;;;;;9.77;4.72;;;;;;;24.45;21.46;97921.56;4942803;29;20452;-91
2021/04/24 10:12:00;;;;;;;10.65;4.75;;;;;;;23.67;21.90;97912.94;4926931;29;20027;-91
2021/04/24 10:14:32;;;;;;;10.30;4.70;;;;;;;23.23;21.88;97885.84;4946996;28;20553;-90
2021/04/24 10:17:02;;;;;;;9.80;4.65;;;;;;;23.10;21.26;97873.69;4961130;28;20423;-90
2021/04/24 10:19:29;;;;;;;12.07;5.53;;;;;;;22.96;21.76;97883.34;4940858;28;20414;-76
2021/04/24 10:21:55;;;;;;;16.42;5.10;;;;;;;23.26;21.96;97890.09;4958487;28;20549;-75
2021/04/24 10:24:25;;;;;;;17.13;6.70;;;;;;;22.50;22.87;97876.44;4953557;28;20066;-77
2021/04/24 10:26:52;;;;;;;15.48;5.57;;;;;;;22.70;24.71;97888.00;4957678;28;20066;-75
2021/04/24 10:29:27;;;;;;;20.92;6.38;;;;;;;22.53;22.69;97889.75;4942500;28;20037;-78
2021/04/24 10:31:53;;;;;;;23.30;11.70;;;;;;;22.90;22.42;97869.50;4938394;28;20031;-78
2021/04/24 10:34:19;;;;;;;15.55;5.00;;;;;;;23.27;21.63;97874.56;4940561;28;20034;-74
2021/04/24 10:36:45;;;;;;;14.52;5.03;;;;;;;23.44;22.21;97870.91;4958760;28;20134;-75
2021/04/24 10:39:32;;;;;;;9.30;4.63;;;;;;;22.73;24.46;97887.69;4975734;28;20027;-77
2021/04/24 10:42:21;;;;;;;16.50;5.00;;;;;;;21.21;26.33;97882.56;4957522;28;20161;-77
2021/04/24 10:44:56;;;;;;;13.98;5.10;;;;;;;20.90;28.66;97885.59;4938635;28;20034;-81
2021/04/24 10:47:38;;;;;;;12.52;4.95;;;;;;;20.03;27.69;97893.13;4938822;28;20037;-81
2021/04/24 10:50:05;;;;;;;12.00;5.13;;;;;;;19.66;30.87;97900.28;4962206;28;20039;-79
2021/04/24 10:52:30;;;;;;;22.20;5.20;;;;;;;19.00;29.60;97884.75;4944052;28;20552;-81
2021/04/24 10:55:17;;;;;;;10.15;4.18;;;;;;;19.10;29.90;97910.06;4941347;28;20118;-82
2021/04/24 10:57:51;;;;;;;11.32;4.75;;;;;;;19.35;30.72;97906.81;4944885;28;20090;-80
2021/04/24 11:00:33;;;;;;;17.65;5.70;;;;;;;19.83;30.86;97915.03;4941588;28;20038;-78
2021/04/24 11:03:00;;;;;;;11.85;5.25;;;;;;;19.77;29.91;97902.88;4960273;28;20042;-79
2021/04/24 11:05:31;;;;;;;18.95;6.90;;;;;;;19.60;31.44;97914.44;4938322;28;20085;-74
2021/04/24 11:08:12;;;;;;;11.88;5.22;;;;;;;19.44;31.29;97922.31;4974738;28;20530;-76
2021/04/24 11:10:58;;;;;;;12.68;5.45;;;;;;;19.32;30.16;97912.50;4971252;28;20030;-76
2021/04/24 11:13:27;;;;;;;14.68;5.05;;;;;;;19.72;30.01;97916.00;4963627;28;20038;-76
2021/04/24 11:15:54;;;;;;;12.60;5.65;;;;;;;18.80;30.51;97914.50;4952610;28;20193;-76
2021/04/24 11:18:20;;;;;;;9.23;4.93;;;;;;;18.45;31.51;97911.34;4925494;28;20105;-75
2021/04/24 11:21:02;;;;;;;27.42;5.35;;;;;;;18.47;34.21;97936.44;4950980;28;20030;-76
2021/04/24 11:23:40;;;;;;;16.40;5.05;;;;;;;18.67;31.43;97938.28;4952709;28;20410;-75
2021/04/24 11:26:09;;;;;;;17.42;5.45;;;;;;;18.59;33.13;97943.53;4963124;28;20022;-76
2021/04/24 11:29:14;;;;;;;9.70;3.75;;;;;;;18.51;32.58;97939.78;4954225;28;20575;-76
2021/04/24 11:31:43;;;;;;;14.95;4.78;;;;;;;17.87;32.39;97935.31;4888086;29;20040;-75
2021/04/24 11:34:29;;;;;;;13.85;5.07;;;;;;;17.62;34.75;97943.81;4957910;28;20046;-75
2021/04/24 11:37:29;;;;;;;11.90;4.53;;;;;;;17.86;32.08;97949.88;4953951;28;20026;-75
2021/04/24 11:40:20;;;;;;;66.93;6.43;;;;;;;17.75;34.57;97949.91;4954150;28;20018;-75